Time;durP1;ratioP1;P1;durP2;ratioP2;P2;SDS_P1;SDS_P2;PMS_P1;PMS_P2;Temp;Humidity;BMP_temperature;BMP_pressure;BME280_temperature;BME280_humidity;BME280_pressure;Samples;Min_cycle;Max_cycle;Signal;HPM_P1;HPM_P2
2024/01/30 00:02:14;;;;;;;19.10;15.82;;;;;;;;;;5072612;28;20528;-81
2024/01/30 00:04:40;;;;;;;16.75;14.98;;;;;;;;;;5074439;28;20392;-81
2024/01/30 00:07:06;;;;;;;18.50;14.57;;;;;;;;;;5056399;28;20047;-81
2024/01/30 00:09:32;;;;;;;19.10;15.20;;;;;;;;;;5072268;28;20480;-81
2024/01/30 00:11:58;;;;;;;16.13;14.48;;;;;;;;;;5056447;28;20048;-81
2024/01/30 00:14:24;;;;;;;15.95;14.40;;;;;;;;;;5072927;28;20457;-81
2024/01/30 00:16:51;;;;;;;17.10;15.13;;;;;;;;;;5072905;28;20045;-81
2024/01/30 00:19:17;;;;;;;20.20;15.30;;;;;;;;;;5072714;28;20131;-81
2024/01/30 00:21:43;;;;;;;18.10;14.73;;;;;;;;;;5072367;28;20040;-81
2024/01/30 00:24:09;;;;;;;17.60;15.52;;;;;;;;;;5072944;28;20041;-81
2024/01/30 00:26:35;;;;;;;15.68;13.82;;;;;;;;;;5072538;28;20044;-81
2024/01/30 00:29:01;;;;;;;17.42;13.73;;;;;;;;;;5072407;28;20098;-81
2024/01/30 00:31:28;;;;;;;16.73;14.50;;;;;;;;;;5073410;28;20048;-81
2024/01/30 00:33:54;;;;;;;17.10;15.32;;;;;;;;;;5073770;28;20139;-81
2024/01/30 00:36:20;;;;;;;16.10;14.40;;;;;;;;;;5072815;28;20048;-81
2024/01/30 00:38:46;;;;;;;17.23;14.48;;;;;;;;;;5072876;28;20055;-81
2024/01/30 00:41:12;;;;;;;15.30;13.65;;;;;;;;;;5073300;28;20401;-81
2024/01/30 00:43:38;;;;;;;15.68;14.00;;;;;;;;;;5072098;28;20465;-81
2024/01/30 00:46:04;;;;;;;15.82;14.20;;;;;;;;;;5072538;28;20087;-81
2024/01/30 00:48:30;;;;;;;16.48;14.75;;;;;;;;;;5072134;28;20040;-81
2024/01/30 00:50:56;;;;;;;17.23;14.38;;;;;;;;;;5072483;28;20133;-81
2024/01/30 00:53:22;;;;;;;16.48;14.77;;;;;;;;;;5055227;28;20049;-81
2024/01/30 00:55:48;;;;;;;15.38;13.75;;;;;;;;;;5054834;28;20129;-81
2024/01/30 00:58:15;;;;;;;15.88;14.02;;;;;;;;;;5072246;28;20392;-81
2024/01/30 01:00:41;;;;;;;17.58;14.73;;;;;;;;;;5072463;28;20557;-81
2024/01/30 01:03:07;;;;;;;15.55;13.95;;;;;;;;;;5072315;28;20048;-81
2024/01/30 01:05:33;;;;;;;18.02;14.73;;;;;;;;;;5072387;28;20071;-81
2024/01/30 01:07:59;;;;;;;17.65;15.07;;;;;;;;;;5071830;28;20044;-81
2024/01/30 01:10:25;;;;;;;16.23;14.07;;;;;;;;;;5038647;28;20048;-81
2024/01/30 01:12:51;;;;;;;16.42;14.02;;;;;;;;;;5055451;28;20052;-81
2024/01/30 01:15:17;;;;;;;17.23;13.95;;;;;;;;;;5073355;28;20094;-81
2024/01/30 01:17:43;;;;;;;16.85;14.38;;;;;;;;;;5072615;28;20381;-81
2024/01/30 01:20:10;;;;;;;15.85;14.15;;;;;;;;;;5072485;28;20055;-81
2024/01/30 01:22:38;;;;;;;18.60;13.60;;;;;;;;;;5072076;28;20044;-81
2024/01/30 01:25:08;;;;;;;18.30;13.13;;;;;;;;;;5071900;28;20058;-81
2024/01/30 01:27:34;;;;;;;16.33;13.75;;;;;;;;;;5072382;28;20048;-81
2024/01/30 01:30:00;;;;;;;16.33;13.93;;;;;;;;;;5072221;28;20041;-81
2024/01/30 01:32:26;;;;;;;15.32;13.57;;;;;;;;;;5071854;28;20048;-81
2024/01/30 01:34:53;;;;;;;15.07;13.43;;;;;;;;;;5072204;28;20437;-81
2024/01/30 01:37:22;;;;;;;14.93;13.43;;;;;;;;;;5072171;28;20044;-81
2024/01/30 01:39:48;;;;;;;15.75;14.05;;;;;;;;;;5071595;28;20088;-81
2024/01/30 01:42:14;;;;;;;14.93;13.38;;;;;;;;;;5071474;28;20056;-81
2024/01/30 01:44:40;;;;;;;14.40;12.80;;;;;;;;;;5071767;28;20044;-81
2024/01/30 01:47:06;;;;;;;15.70;14.15;;;;;;;;;;5072114;28;20045;-81
2024/01/30 01:49:33;;;;;;;14.80;13.38;;;;;;;;;;5073166;28;20045;-81
2024/01/30 01:51:59;;;;;;;18.90;13.98;;;;;;;;;;5075460;28;20048;-81
2024/01/30 01:54:26;;;;;;;15.95;14.02;;;;;;;;;;5075873;28;20048;-81
2024/01/30 01:56:53;;;;;;;15.30;13.75;;;;;;;;;;5075574;28;20056;-81
2024/01/30 01:59:20;;;;;;;15.98;13.20;;;;;;;;;;5075509;28;20040;-81
2024/01/30 02:01:49;;;;;;;15.38;13.80;;;;;;;;;;5075181;28;20051;-81
2024/01/30 02:04:15;;;;;;;17.40;13.27;;;;;;;;;;5075501;28;20049;-81
2024/01/30 02:06:41;;;;;;;16.73;13.75;;;;;;;;;;5076057;28;20154;-81
2024/01/30 02:09:09;;;;;;;15.15;13.52;;;;;;;;;;5057757;28;20492;-81
2024/01/30 02:11:35;;;;;;;16.13;13.63;;;;;;;;;;5058308;28;20504;-81
2024/01/30 02:14:05;;;;;;;15.27;13.30;;;;;;;;;;5075123;28;20044;-81
2024/01/30 02:16:31;;;;;;;16.20;13.18;;;;;;;;;;5058451;28;20052;-81
2024/01/30 02:18:57;;;;;;;16.70;12.88;;;;;;;;;;5075295;28;20071;-81
2024/01/30 02:21:23;;;;;;;16.00;13.40;;;;;;;;;;5075092;28;20041;-81
2024/01/30 02:23:50;;;;;;;18.83;13.80;;;;;;;;;;5076125;28;20055;-81
2024/01/30 02:26:16;;;;;;;18.05;14.40;;;;;;;;;;5075106;28;20044;-81
2024/01/30 02:28:42;;;;;;;15.65;13.25;;;;;;;;;;5074839;28;20080;-81
2024/01/30 02:31:08;;;;;;;14.52;13.10;;;;;;;;;;5075167;28;20060;-81
2024/01/30 02:33:34;;;;;;;17.17;12.13;;;;;;;;;;5075314;28;20143;-81
2024/01/30 02:36:00;;;;;;;18.13;13.43;;;;;;;;;;5075195;28;20049;-81
2024/01/30 02:38:26;;;;;;;17.08;13.32;;;;;;;;;;5075596;28;20519;-81
2024/01/30 02:40:52;;;;;;;15.85;14.18;;;;;;;;;;5057471;28;20051;-81
2024/01/30 02:43:19;;;;;;;15.10;13.43;;;;;;;;;;5074244;28;20107;-81
2024/01/30 02:45:45;;;;;;;16.58;12.93;;;;;;;;;;5074490;28;20049;-81
2024/01/30 02:48:11;;;;;;;16.02;13.85;;;;;;;;;;5058123;28;20074;-81
2024/01/30 02:50:37;;;;;;;16.30;13.57;;;;;;;;;;5074593;28;20500;-81
2024/01/30 02:53:03;;;;;;;13.63;12.00;;;;;;;;;;5074597;28;20053;-81
2024/01/30 02:55:29;;;;;;;14.43;12.80;;;;;;;;;;5074321;28;20393;-81
2024/01/30 02:57:55;;;;;;;14.07;12.73;;;;;;;;;;5074430;28;20082;-81
2024/01/30 03:00:21;;;;;;;15.50;13.90;;;;;;;;;;5074561;28;20397;-81
2024/01/30 03:02:47;;;;;;;13.50;12.15;;;;;;;;;;5075128;28;20127;-81
2024/01/30 03:05:13;;;;;;;14.90;13.38;;;;;;;;;;5074077;28;20086;-81
2024/01/30 03:07:39;;;;;;;13.88;12.55;;;;;;;;;;5073566;28;20052;-81
2024/01/30 03:10:06;;;;;;;14.13;12.57;;;;;;;;;;5056875;28;20055;-81
2024/01/30 03:12:32;;;;;;;14.20;12.70;;;;;;;;;;5074018;28;20151;-81
2024/01/30 03:14:58;;;;;;;15.38;13.80;;;;;;;;;;5074124;28;20126;-81
2024/01/30 03:17:24;;;;;;;15.13;13.43;;;;;;;;;;5073974;28;20069;-81
2024/01/30 03:19:50;;;;;;;14.50;12.80;;;;;;;;;;5074064;28;20054;-81
2024/01/30 03:22:16;;;;;;;16.70;13.32;;;;;;;;;;5073875;28;20052;-81
2024/01/30 03:24:42;;;;;;;14.60;12.63;;;;;;;;;;5057355;28;20044;-81
2024/01/30 03:27:09;;;;;;;14.23;12.50;;;;;;;;;;5073730;28;20206;-81
2024/01/30 03:29:35;;;;;;;13.25;11.85;;;;;;;;;;5073508;28;20254;-81
2024/01/30 03:32:01;;;;;;;14.63;13.13;;;;;;;;;;5073481;28;20531;-81
2024/01/30 03:34:27;;;;;;;15.18;13.43;;;;;;;;;;5073640;28;20049;-81
2024/01/30 03:36:53;;;;;;;15.25;13.38;;;;;;;;;;5073707;28;20045;-81
2024/01/30 03:39:19;;;;;;;13.52;12.30;;;;;;;;;;5073044;28;20128;-81
2024/01/30 03:41:45;;;;;;;16.83;13.13;;;;;;;;;;5073014;28;20044;-81
2024/01/30 03:44:11;;;;;;;14.68;13.18;;;;;;;;;;5073622;28;20060;-81
2024/01/30 03:46:38;;;;;;;14.80;13.27;;;;;;;;;;5056937;28;20044;-81
2024/01/30 03:49:04;;;;;;;15.85;12.50;;;;;;;;;;5073392;28;20097;-81
2024/01/30 03:51:30;;;;;;;15.50;13.07;;;;;;;;;;5074168;28;20048;-81
2024/01/30 03:53:56;;;;;;;14.48;12.93;;;;;;;;;;5073287;28;20048;-81
2024/01/30 03:56:22;;;;;;;14.30;12.80;;;;;;;;;;5057217;28;20133;-81
2024/01/30 03:58:48;;;;;;;14.25;12.85;;;;;;;;;;5074252;28;20071;-81
2024/01/30 04:01:14;;;;;;;14.30;12.82;;;;;;;;;;5073164;28;20049;-81
2024/01/30 04:03:41;;;;;;;15.27;12.68;;;;;;;;;;5072832;28;20040;-81
2024/01/30 04:06:07;;;;;;;14.30;12.70;;;;;;;;;;5073289;28;20094;-81
2024/01/30 04:08:33;;;;;;;14.75;13.25;;;;;;;;;;5056582;28;20135;-81
2024/01/30 04:10:59;;;;;;;15.35;13.15;;;;;;;;;;5072521;28;20044;-81
2024/01/30 04:13:25;;;;;;;16.33;13.32;;;;;;;;;;5073407;28;20054;-81
2024/01/30 04:15:51;;;;;;;14.52;13.07;;;;;;;;;;5056184;28;20488;-81
2024/01/30 04:18:18;;;;;;;15.45;13.23;;;;;;;;;;5072845;28;20396;-81
2024/01/30 04:20:44;;;;;;;15.70;13.82;;;;;;;;;;5072982;28;20148;-81
2024/01/30 04:23:10;;;;;;;14.00;12.55;;;;;;;;;;5072847;28;20067;-81
2024/01/30 04:25:36;;;;;;;14.82;13.05;;;;;;;;;;5072930;28;20123;-81
2024/01/30 04:28:02;;;;;;;15.18;13.60;;;;;;;;;;5072836;28;20106;-81
2024/01/30 04:30:28;;;;;;;17.30;13.60;;;;;;;;;;5072791;28;20045;-81
2024/01/30 04:32:54;;;;;;;14.02;12.52;;;;;;;;;;5055811;28;20082;-81
2024/01/30 04:35:23;;;;;;;15.23;13.65;;;;;;;;;;5055946;28;20544;-81
2024/01/30 04:37:49;;;;;;;15.60;12.68;;;;;;;;;;5072639;28;20079;-81
2024/01/30 04:40:15;;;;;;;15.77;14.00;;;;;;;;;;5072174;28;20400;-81
2024/01/30 04:42:41;;;;;;;15.57;14.15;;;;;;;;;;5055666;28;20098;-81
2024/01/30 04:45:07;;;;;;;15.60;13.75;;;;;;;;;;5072698;28;20048;-81
2024/01/30 04:47:33;;;;;;;15.52;13.98;;;;;;;;;;5072363;28;20068;-81
2024/01/30 04:50:00;;;;;;;19.77;14.52;;;;;;;;;;5072632;28;20135;-81
2024/01/30 04:52:26;;;;;;;15.98;13.77;;;;;;;;;;5072029;28;20091;-81
2024/01/30 04:54:52;;;;;;;15.75;13.60;;;;;;;;;;5071802;28;20105;-81
2024/01/30 04:57:18;;;;;;;17.30;13.77;;;;;;;;;;5072198;28;20052;-81
2024/01/30 04:59:44;;;;;;;17.27;14.45;;;;;;;;;;5072594;28;20063;-81
2024/01/30 05:02:10;;;;;;;15.52;13.63;;;;;;;;;;5055781;28;20048;-81
2024/01/30 05:04:36;;;;;;;14.80;12.88;;;;;;;;;;5072161;28;20040;-81
2024/01/30 05:07:02;;;;;;;15.25;13.43;;;;;;;;;;5072417;28;20127;-81
2024/01/30 05:09:28;;;;;;;17.88;15.35;;;;;;;;;;5072090;28;20045;-81
2024/01/30 05:11:54;;;;;;;18.48;15.13;;;;;;;;;;5055318;28;20492;-81
2024/01/30 05:14:20;;;;;;;17.10;13.68;;;;;;;;;;5070976;28;20163;-81
2024/01/30 05:16:47;;;;;;;17.80;14.68;;;;;;;;;;5055262;28;20098;-81
2024/01/30 05:19:17;;;;;;;14.68;13.13;;;;;;;;;;5072057;28;20063;-81
2024/01/30 05:21:43;;;;;;;15.30;13.77;;;;;;;;;;5072262;28;20049;-81
2024/01/30 05:24:10;;;;;;;22.90;14.77;;;;;;;;;;5072845;28;20045;-81
2024/01/30 05:26:36;;;;;;;18.17;14.25;;;;;;;;;;5076179;28;20040;-81
2024/01/30 05:29:02;;;;;;;17.67;13.88;;;;;;;;;;5076878;28;20131;-81
2024/01/30 05:31:28;;;;;;;15.60;13.98;;;;;;;;;;5059544;28;20045;-81
2024/01/30 05:33:55;;;;;;;15.68;13.68;;;;;;;;;;5075923;28;20055;-81
2024/01/30 05:36:21;;;;;;;15.32;13.32;;;;;;;;;;5059203;28;20053;-81
2024/01/30 05:38:47;;;;;;;16.63;13.80;;;;;;;;;;5075766;28;20083;-81
2024/01/30 05:41:13;;;;;;;16.25;13.93;;;;;;;;;;5075920;28;20135;-81
2024/01/30 05:43:39;;;;;;;17.92;13.65;;;;;;;;;;5075404;28;20480;-81
2024/01/30 05:46:06;;;;;;;15.43;12.80;;;;;;;;;;5075772;28;20055;-81
2024/01/30 05:48:35;;;;;;;18.38;13.02;;;;;;;;;;5075725;28;20044;-81
2024/01/30 05:51:01;;;;;;;14.93;12.93;;;;;;;;;;5059836;28;20051;-81
2024/01/30 05:53:27;;;;;;;17.45;13.50;;;;;;;;;;5058722;28;20049;-81
2024/01/30 05:55:53;;;;;;;14.63;12.52;;;;;;;;;;5058881;28;20056;-81
2024/01/30 05:58:19;;;;;;;14.77;12.95;;;;;;;;;;5058806;28;20408;-82
2024/01/30 06:00:45;;;;;;;14.85;13.35;;;;;;;;;;5075834;28;20056;-81
2024/01/30 06:03:11;;;;;;;14.73;13.18;;;;;;;;;;5075260;28;20048;-81
2024/01/30 06:05:37;;;;;;;14.10;12.60;;;;;;;;;;5075456;28;20053;-81
2024/01/30 06:08:03;;;;;;;14.38;12.70;;;;;;;;;;5058430;28;20053;-82
2024/01/30 06:10:29;;;;;;;14.80;13.23;;;;;;;;;;5075531;28;20405;-81
2024/01/30 06:12:55;;;;;;;12.82;11.52;;;;;;;;;;5074983;28;20493;-81
2024/01/30 06:15:21;;;;;;;14.35;12.70;;;;;;;;;;5076249;28;20045;-81
2024/01/30 06:17:48;;;;;;;14.50;12.90;;;;;;;;;;5074783;28;20131;-81
2024/01/30 06:20:14;;;;;;;14.00;12.40;;;;;;;;;;5075151;28;20060;-81
2024/01/30 06:22:40;;;;;;;15.93;13.45;;;;;;;;;;5074986;28;20044;-81
2024/01/30 06:25:06;;;;;;;15.57;13.20;;;;;;;;;;5075120;28;20063;-81
2024/01/30 06:27:32;;;;;;;13.85;12.38;;;;;;;;;;5074812;28;20493;-81
2024/01/30 06:29:58;;;;;;;17.30;13.27;;;;;;;;;;5075005;28;20048;-81
2024/01/30 06:32:24;;;;;;;13.98;12.68;;;;;;;;;;5074997;28;20055;-81
2024/01/30 06:34:50;;;;;;;16.60;13.23;;;;;;;;;;5073480;28;20124;-81
2024/01/30 06:37:16;;;;;;;15.05;11.80;;;;;;;;;;5074250;28;20059;-81
2024/01/30 06:39:42;;;;;;;14.93;12.93;;;;;;;;;;5074414;28;20041;-82
2024/01/30 06:42:09;;;;;;;15.18;13.35;;;;;;;;;;5074193;28;20088;-81
2024/01/30 06:44:35;;;;;;;15.57;13.48;;;;;;;;;;5074731;28;20098;-81
2024/01/30 06:47:01;;;;;;;15.15;13.40;;;;;;;;;;5074936;28;20040;-81
2024/01/30 06:49:27;;;;;;;15.20;13.73;;;;;;;;;;5039041;28;20052;-82
2024/01/30 06:51:53;;;;;;;15.27;13.68;;;;;;;;;;5050160;28;20048;-82
2024/01/30 06:54:19;;;;;;;14.95;13.45;;;;;;;;;;5048984;28;20032;-83
2024/01/30 06:56:45;;;;;;;15.73;13.60;;;;;;;;;;5067410;28;20038;-83
2024/01/30 06:59:11;;;;;;;14.88;13.40;;;;;;;;;;5065343;28;20069;-82
2024/01/30 07:01:37;;;;;;;16.23;14.52;;;;;;;;;;5067164;28;20088;-82
2024/01/30 07:04:04;;;;;;;14.32;12.82;;;;;;;;;;5083933;28;20036;-82
2024/01/30 07:06:30;;;;;;;15.10;13.27;;;;;;;;;;5081998;28;20101;-82
2024/01/30 07:08:56;;;;;;;14.50;13.00;;;;;;;;;;5066566;28;20127;-81
2024/01/30 07:11:23;;;;;;;15.60;12.85;;;;;;;;;;5082414;28;20032;-82
2024/01/30 07:13:50;;;;;;;15.02;13.63;;;;;;;;;;5082738;28;20047;-82
2024/01/30 07:16:16;;;;;;;17.42;13.40;;;;;;;;;;5075526;28;20365;-84
2024/01/30 07:18:44;;;;;;;15.00;13.43;;;;;;;;;;5060870;28;20040;-84
2024/01/30 07:21:10;;;;;;;13.10;11.52;;;;;;;;;;5056712;28;20123;-84
2024/01/30 07:23:38;;;;;;;13.98;12.60;;;;;;;;;;5064228;28;20043;-95
2024/01/30 07:26:05;;;;;;;14.07;12.68;;;;;;;;;;5070873;28;20051;-81
2024/01/30 07:28:31;;;;;;;13.05;11.73;;;;;;;;;;5074502;28;20149;-81
2024/01/30 07:30:57;;;;;;;13.20;12.00;;;;;;;;;;5076696;28;20058;-81
2024/01/30 07:33:23;;;;;;;15.90;12.98;;;;;;;;;;5063113;28;20044;-81
2024/01/30 07:35:49;;;;;;;14.48;12.98;;;;;;;;;;5056872;28;20503;-81
2024/01/30 07:38:15;;;;;;;15.25;13.23;;;;;;;;;;5076793;28;20519;-81
2024/01/30 07:40:41;;;;;;;13.27;11.88;;;;;;;;;;5079843;28;20380;-81
2024/01/30 07:43:08;;;;;;;13.38;11.93;;;;;;;;;;5072772;28;20048;-81
2024/01/30 07:45:34;;;;;;;13.55;12.18;;;;;;;;;;5073442;28;20226;-81
2024/01/30 07:48:00;;;;;;;12.73;10.75;;;;;;;;;;5072757;28;20041;-81
2024/01/30 07:50:26;;;;;;;14.55;12.45;;;;;;;;;;5073367;28;20476;-81
2024/01/30 07:52:54;;;;;;;13.27;11.65;;;;;;;;;;5073415;28;20085;-81
2024/01/30 07:55:27;;;;;;;13.32;11.93;;;;;;;;;;5073706;28;20047;-80
2024/01/30 07:57:53;;;;;;;14.80;12.15;;;;;;;;;;5073352;28;20040;-81
2024/01/30 08:00:20;;;;;;;14.68;10.68;;;;;;;;;;5056641;28;20054;-81
2024/01/30 08:02:46;;;;;;;14.52;12.20;;;;;;;;;;5073286;28;20059;-81
2024/01/30 08:05:14;;;;;;;14.07;12.60;;;;;;;;;;5073246;28;20037;-81
2024/01/30 08:07:40;;;;;;;13.70;12.35;;;;;;;;;;5073141;28;20127;-81
2024/01/30 08:10:06;;;;;;;13.57;12.25;;;;;;;;;;5072587;28;20523;-81
2024/01/30 08:12:32;;;;;;;16.75;12.93;;;;;;;;;;5056290;28;20080;-81
2024/01/30 08:14:58;;;;;;;13.95;12.27;;;;;;;;;;5056217;28;20123;-80
2024/01/30 08:17:24;;;;;;;14.63;13.13;;;;;;;;;;5056494;28;20388;-80
2024/01/30 08:19:51;;;;;;;15.35;12.00;;;;;;;;;;5056393;28;20083;-81
2024/01/30 08:22:17;;;;;;;14.75;12.32;;;;;;;;;;5056327;28;20495;-80
2024/01/30 08:24:43;;;;;;;12.90;11.55;;;;;;;;;;5072849;28;20452;-81
2024/01/30 08:27:09;;;;;;;13.38;12.05;;;;;;;;;;5072762;28;20098;-82
2024/01/30 08:29:36;;;;;;;14.73;12.13;;;;;;;;;;5073071;28;20066;-80
2024/01/30 08:32:02;;;;;;;13.13;11.65;;;;;;;;;;5072902;28;20052;-80
2024/01/30 08:34:28;;;;;;;13.20;11.77;;;;;;;;;;5106774;28;20040;-80
2024/01/30 08:36:54;;;;;;;13.20;11.75;;;;;;;;;;5056408;28;20134;-81
2024/01/30 08:39:20;;;;;;;13.93;11.85;;;;;;;;;;5072366;28;20044;-81
2024/01/30 08:41:46;;;;;;;12.48;10.48;;;;;;;;;;5072429;28;20097;-80
2024/01/30 08:44:12;;;;;;;13.88;12.40;;;;;;;;;;5056942;28;20461;-80
2024/01/30 08:46:38;;;;;;;12.85;10.55;;;;;;;;;;5072749;28;20049;-81
2024/01/30 08:49:04;;;;;;;11.82;10.73;;;;;;;;;;5072691;28;20166;-81
2024/01/30 08:51:31;;;;;;;13.48;11.77;;;;;;;;;;5072717;28;20040;-81
2024/01/30 08:53:57;;;;;;;12.77;10.70;;;;;;;;;;5072720;28;20049;-81
2024/01/30 08:56:23;;;;;;;15.10;11.32;;;;;;;;;;5073674;28;20049;-80
2024/01/30 08:58:49;;;;;;;16.20;12.95;;;;;;;;;;5074374;28;20043;-81
2024/01/30 09:01:15;;;;;;;14.20;11.52;;;;;;;;;;5059954;28;20093;-81
2024/01/30 09:03:43;;;;;;;13.55;10.50;;;;;;;;;;5076390;28;20080;-81
2024/01/30 09:06:09;;;;;;;12.07;10.82;;;;;;;;;;5076651;28;20098;-81
2024/01/30 09:08:35;;;;;;;11.98;10.73;;;;;;;;;;5076428;28;20044;-80
2024/01/30 09:11:02;;;;;;;14.43;10.50;;;;;;;;;;5059596;28;20036;-81
2024/01/30 09:13:28;;;;;;;12.50;10.35;;;;;;;;;;5059915;28;20122;-80
2024/01/30 09:15:55;;;;;;;11.95;10.07;;;;;;;;;;5060231;28;20125;-81
2024/01/30 09:18:22;;;;;;;14.00;11.07;;;;;;;;;;5060182;28;20127;-81
2024/01/30 09:20:48;;;;;;;12.50;11.20;;;;;;;;;;5076454;28;20044;-81
2024/01/30 09:23:14;;;;;;;12.50;11.20;;;;;;;;;;5076112;28;20044;-81
2024/01/30 09:25:40;;;;;;;10.48;9.32;;;;;;;;;;5076277;28;20040;-81
2024/01/30 09:28:06;;;;;;;13.70;11.43;;;;;;;;;;5076345;28;20489;-81
2024/01/30 09:30:32;;;;;;;12.13;10.90;;;;;;;;;;5076260;28;20045;-80
2024/01/30 09:32:59;;;;;;;12.02;10.82;;;;;;;;;;5075865;28;20040;-81
2024/01/30 09:35:25;;;;;;;10.68;9.60;;;;;;;;;;5059544;28;20477;-81
2024/01/30 09:37:52;;;;;;;12.02;10.80;;;;;;;;;;5059393;28;20047;-81
2024/01/30 09:40:19;;;;;;;11.70;10.10;;;;;;;;;;5075604;28;20044;-81
2024/01/30 09:42:50;;;;;;;12.48;10.73;;;;;;;;;;5075305;28;20067;-81
2024/01/30 09:45:16;;;;;;;12.80;10.95;;;;;;;;;;5076705;28;20045;-81
2024/01/30 09:47:43;;;;;;;12.57;11.30;;;;;;;;;;5059154;28;20094;-81
2024/01/30 09:50:09;;;;;;;12.07;10.80;;;;;;;;;;5075902;28;20040;-81
2024/01/30 09:52:36;;;;;;;13.82;10.88;;;;;;;;;;5075403;28;20049;-81
2024/01/30 09:55:02;;;;;;;13.57;11.43;;;;;;;;;;5075406;28;20045;-80
2024/01/30 09:57:29;;;;;;;13.90;10.52;;;;;;;;;;5058955;28;20045;-78
2024/01/30 09:59:55;;;;;;;13.10;11.10;;;;;;;;;;5058881;28;20088;-79
2024/01/30 10:02:22;;;;;;;14.27;10.10;;;;;;;;;;5075366;28;20067;-80
2024/01/30 10:04:49;;;;;;;12.90;10.52;;;;;;;;;;5076561;28;20077;-79
2024/01/30 10:07:15;;;;;;;12.13;9.27;;;;;;;;;;5076441;28;20044;-80
2024/01/30 10:09:41;;;;;;;11.95;10.20;;;;;;;;;;5074701;28;20044;-80
2024/01/30 10:12:08;;;;;;;12.88;10.00;;;;;;;;;;5075459;28;20474;-80
2024/01/30 10:14:34;;;;;;;13.70;10.82;;;;;;;;;;5075807;28;20044;-80
2024/01/30 10:17:01;;;;;;;11.55;10.25;;;;;;;;;;5058094;28;20036;-80
2024/01/30 10:19:27;;;;;;;10.93;9.63;;;;;;;;;;5074697;28;20079;-80
2024/01/30 10:21:53;;;;;;;11.35;9.13;;;;;;;;;;5074851;28;20051;-80
2024/01/30 10:24:24;;;;;;;14.15;10.23;;;;;;;;;;5075247;28;20071;-80
2024/01/30 10:26:50;;;;;;;11.38;9.43;;;;;;;;;;5074994;28;20040;-80
2024/01/30 10:29:17;;;;;;;14.00;10.18;;;;;;;;;;5073975;28;20059;-80
2024/01/30 10:31:43;;;;;;;14.07;10.68;;;;;;;;;;5074926;28;20044;-80
2024/01/30 10:34:09;;;;;;;11.90;9.82;;;;;;;;;;5074637;28;20041;-80
2024/01/30 10:36:41;;;;;;;16.77;10.27;;;;;;;;;;5074800;28;20075;-80
2024/01/30 10:39:08;;;;;;;13.80;10.20;;;;;;;;;;5073533;28;20040;-80
2024/01/30 10:41:37;;;;;;;11.85;9.77;;;;;;;;;;5074766;28;20460;-80
2024/01/30 10:44:08;;;;;;;13.77;10.73;;;;;;;;;;5075371;28;20084;-80
2024/01/30 10:46:36;;;;;;;13.60;10.48;;;;;;;;;;5075689;28;20095;-80
2024/01/30 10:49:02;;;;;;;15.07;10.13;;;;;;;;;;5074638;28;20456;-80
2024/01/30 10:51:28;;;;;;;10.90;9.77;;;;;;;;;;5058031;28;20111;-80
2024/01/30 10:53:56;;;;;;;15.75;11.13;;;;;;;;;;5074623;28;20044;-80
2024/01/30 10:56:22;;;;;;;15.88;10.85;;;;;;;;;;5074166;28;20037;-80
2024/01/30 10:58:51;;;;;;;15.88;10.10;;;;;;;;;;5075225;28;20446;-80
2024/01/30 11:01:17;;;;;;;11.43;9.70;;;;;;;;;;5074631;28;20370;-79
2024/01/30 11:03:44;;;;;;;12.55;10.20;;;;;;;;;;5074595;28;20040;-81
2024/01/30 11:06:17;;;;;;;14.32;10.40;;;;;;;;;;5082147;28;20113;-81
2024/01/30 11:08:44;;;;;;;11.77;10.68;;;;;;;;;;5084551;28;20059;-81
2024/01/30 11:11:10;;;;;;;13.02;10.88;;;;;;;;;;5065144;28;20052;-81
2024/01/30 11:13:36;;;;;;;14.05;9.80;;;;;;;;;;5081965;28;20426;-81
2024/01/30 11:16:03;;;;;;;16.35;10.75;;;;;;;;;;5060700;28;20055;-81
2024/01/30 11:18:30;;;;;;;12.65;11.35;;;;;;;;;;5075014;28;20353;-80
2024/01/30 11:20:57;;;;;;;13.45;10.23;;;;;;;;;;5070739;28;20056;-80
2024/01/30 11:23:24;;;;;;;13.07;9.75;;;;;;;;;;5081548;28;20123;-80
2024/01/30 11:25:52;;;;;;;12.35;10.43;;;;;;;;;;5086635;28;20475;-80
2024/01/30 11:28:18;;;;;;;14.00;10.65;;;;;;;;;;5094412;28;20050;-80
2024/01/30 11:30:47;;;;;;;13.25;11.77;;;;;;;;;;5080437;28;20078;-80
2024/01/30 11:33:13;;;;;;;14.68;11.23;;;;;;;;;;5057014;28;20067;-80
2024/01/30 11:35:43;;;;;;;15.55;11.65;;;;;;;;;;5057044;28;20552;-80
2024/01/30 11:38:11;;;;;;;13.02;11.00;;;;;;;;;;5073680;28;20504;-80
2024/01/30 11:40:40;;;;;;;14.80;10.93;;;;;;;;;;5073631;28;20045;-81
2024/01/30 11:43:07;;;;;;;13.70;10.27;;;;;;;;;;5056714;28;20056;-80
2024/01/30 11:45:33;;;;;;;12.38;10.75;;;;;;;;;;5062934;28;20131;-80
2024/01/30 11:48:01;;;;;;;12.25;10.88;;;;;;;;;;5068496;28;20076;-80
2024/01/30 11:50:27;;;;;;;14.07;9.93;;;;;;;;;;5094293;28;20105;-80
2024/01/30 11:52:54;;;;;;;12.73;11.43;;;;;;;;;;5082620;28;20044;-80
2024/01/30 11:55:20;;;;;;;16.23;11.75;;;;;;;;;;5077478;28;20048;-81
2024/01/30 11:57:47;;;;;;;15.50;11.65;;;;;;;;;;5073074;28;20047;-80
2024/01/30 12:00:16;;;;;;;17.17;10.20;;;;;;;;;;5073248;28;20070;-81
2024/01/30 12:02:43;;;;;;;13.75;11.35;;;;;;;;;;5056215;28;20040;-80
2024/01/30 12:05:09;;;;;;;12.27;11.10;;;;;;;;;;5072643;28;20063;-81
2024/01/30 12:07:35;;;;;;;13.32;10.68;;;;;;;;;;5073189;28;20094;-80
2024/01/30 12:10:02;;;;;;;15.75;10.35;;;;;;;;;;5072502;28;20076;-80
2024/01/30 12:12:29;;;;;;;14.82;10.90;;;;;;;;;;5056731;28;20052;-80
2024/01/30 12:14:56;;;;;;;14.50;10.32;;;;;;;;;;5039599;28;20047;-81
2024/01/30 12:17:29;;;;;;;11.85;10.57;;;;;;;;;;5073908;28;20053;-85
2024/01/30 12:20:06;;;;;;;15.10;10.93;;;;;;;;;;5072465;28;20044;-80
2024/01/30 12:22:33;;;;;;;13.48;10.18;;;;;;;;;;5055834;28;20044;-80
2024/01/30 12:25:05;;;;;;;13.32;9.75;;;;;;;;;;5072727;28;20044;-80
2024/01/30 12:27:31;;;;;;;11.40;9.73;;;;;;;;;;5074259;28;20163;-80
2024/01/30 12:29:58;;;;;;;12.73;10.38;;;;;;;;;;5056348;28;20076;-80
2024/01/30 12:32:24;;;;;;;11.55;9.43;;;;;;;;;;5056160;28;20054;-81
2024/01/30 12:34:50;;;;;;;12.30;10.07;;;;;;;;;;5055764;28;20036;-80
2024/01/30 12:37:19;;;;;;;11.65;9.90;;;;;;;;;;5072742;28;20044;-80
2024/01/30 12:39:45;;;;;;;11.32;9.98;;;;;;;;;;5039614;28;20044;-80
2024/01/30 12:42:12;;;;;;;11.00;9.95;;;;;;;;;;5072448;28;20495;-80
2024/01/30 12:44:39;;;;;;;12.90;10.18;;;;;;;;;;5072851;28;20074;-80
2024/01/30 12:47:06;;;;;;;11.82;10.63;;;;;;;;;;5073768;28;20396;-80
2024/01/30 12:49:32;;;;;;;12.35;9.60;;;;;;;;;;5056066;28;20075;-80
2024/01/30 12:51:59;;;;;;;13.93;10.23;;;;;;;;;;5055879;28;20074;-80
2024/01/30 12:54:25;;;;;;;12.18;10.27;;;;;;;;;;5072506;28;20049;-80
2024/01/30 12:56:51;;;;;;;14.80;10.68;;;;;;;;;;5072574;28;20053;-80
2024/01/30 12:59:17;;;;;;;12.25;10.73;;;;;;;;;;5072568;28;20046;-80
2024/01/30 13:01:43;;;;;;;12.45;11.13;;;;;;;;;;5073049;28;20044;-78
2024/01/30 13:04:09;;;;;;;11.77;10.15;;;;;;;;;;5072881;28;20045;-79
2024/01/30 13:06:36;;;;;;;13.05;10.48;;;;;;;;;;5073184;28;20055;-80
2024/01/30 13:09:02;;;;;;;13.43;10.32;;;;;;;;;;5072294;28;20094;-80
2024/01/30 13:11:28;;;;;;;10.25;8.95;;;;;;;;;;5072041;28;20178;-80
2024/01/30 13:13:54;;;;;;;8.45;7.68;;;;;;;;;;5073355;28;20044;-82
2024/01/30 13:16:20;;;;;;;11.00;7.07;;;;;;;;;;5055530;28;20408;-79
2024/01/30 13:18:46;;;;;;;12.25;6.75;;;;;;;;;;5072523;28;20084;-77
2024/01/30 13:21:12;;;;;;;9.77;6.45;;;;;;;;;;5072696;28;20037;-78
2024/01/30 13:23:38;;;;;;;10.02;6.20;;;;;;;;;;5073183;28;20040;-76
2024/01/30 13:26:04;;;;;;;6.30;5.65;;;;;;;;;;5072388;28;20048;-78
2024/01/30 13:28:30;;;;;;;8.73;5.22;;;;;;;;;;5072364;28;20051;-78
2024/01/30 13:30:56;;;;;;;6.10;4.15;;;;;;;;;;5071774;28;20041;-78
2024/01/30 13:33:22;;;;;;;7.70;5.28;;;;;;;;;;5072094;28;20437;-78
2024/01/30 13:35:49;;;;;;;4.40;3.67;;;;;;;;;;5072154;28;20048;-77
2024/01/30 13:38:15;;;;;;;7.95;4.18;;;;;;;;;;5073111;28;20130;-77
2024/01/30 13:40:41;;;;;;;8.73;3.55;;;;;;;;;;5073042;28;20091;-76
2024/01/30 13:43:07;;;;;;;5.97;3.58;;;;;;;;;;5072983;28;20052;-76
2024/01/30 13:45:33;;;;;;;7.15;3.20;;;;;;;;;;5074271;28;20045;-80
2024/01/30 13:47:59;;;;;;;7.38;2.72;;;;;;;;;;5075281;28;20052;-82
2024/01/30 13:50:26;;;;;;;4.40;2.28;;;;;;;;;;5059114;28;20040;-78
2024/01/30 13:52:52;;;;;;;6.72;2.10;;;;;;;;;;5076136;28;20492;-77
2024/01/30 13:55:18;;;;;;;4.93;1.88;;;;;;;;;;5076645;28;20057;-78
2024/01/30 13:57:44;;;;;;;5.35;2.03;;;;;;;;;;5076551;28;20114;-79
2024/01/30 14:00:11;;;;;;;6.13;2.65;;;;;;;;;;5058868;28;20542;-76
2024/01/30 14:02:38;;;;;;;5.72;2.33;;;;;;;;;;5076414;28;20040;-76
2024/01/30 14:05:04;;;;;;;4.88;2.70;;;;;;;;;;5075393;28;20055;-76
2024/01/30 14:07:32;;;;;;;6.47;3.13;;;;;;;;;;5076439;28;20048;-77
2024/01/30 14:09:58;;;;;;;6.43;3.28;;;;;;;;;;5075944;28;20127;-77
2024/01/30 14:12:24;;;;;;;4.25;3.10;;;;;;;;;;5075007;28;20411;-78
2024/01/30 14:14:50;;;;;;;5.45;3.00;;;;;;;;;;5075727;28;20090;-77